Time;durP1;ratioP1;P1;durP2;ratioP2;P2;SDS_P1;SDS_P2;PMS_P1;PMS_P2;Temp;Humidity;BMP_temperature;BMP_pressure;BME280_temperature;BME280_humidity;BME280_pressure;Samples;Min_cycle;Max_cycle;Signal;HPM_P1;HPM_P2
2024/01/03 00:00:18;;;;;;;44.92;27.38;;;6.80;99.90;;;;;;5009562;29;20425;-71
2024/01/03 00:02:49;;;;;;;;;;;6.00;99.90;;;;;;5009943;29;20038;-77
2024/01/03 00:05:25;;;;;;;30.23;21.38;;;6.80;99.90;;;;;;5009106;29;19989;-77
2024/01/03 00:07:56;;;;;;;13.25;11.45;;;6.70;99.90;;;;;;5008441;29;20037;-77
2024/01/03 00:10:45;;;;;;;18.08;14.88;;;6.40;99.90;;;;;;5007667;29;20022;-78
2024/01/03 00:13:34;;;;;;;22.73;18.77;;;6.70;99.90;;;;;;5009108;29;20124;-76
2024/01/03 00:16:06;;;;;;;14.15;11.85;;;7.20;99.90;;;;;;5009024;29;20030;-71
2024/01/03 00:18:58;;;;;;;11.23;10.20;;;6.10;99.90;;;;;;5008421;29;20061;-77
2024/01/03 00:21:29;;;;;;;13.73;8.90;;;7.20;99.90;;;;;;5008181;29;20143;-74
2024/01/03 00:24:05;;;;;;;8.50;7.60;;;6.80;99.90;;;;;;5008359;29;20034;-72
2024/01/03 00:26:39;;;;;;;10.43;8.23;;;6.60;99.90;;;;;;5008388;29;20104;-73
2024/01/03 00:29:48;;;;;;;67.13;42.00;;;5.80;99.90;;;;;;5008103;29;20026;-73
2024/01/03 00:32:21;;;;;;;17.35;13.95;;;5.80;99.90;;;;;;5008413;29;20078;-77
2024/01/03 00:34:53;;;;;;;24.33;16.48;;;6.50;99.90;;;;;;5009304;29;20030;-77
2024/01/03 00:37:32;;;;;;;13.95;10.98;;;6.50;99.90;;;;;;5008907;29;20045;-76
2024/01/03 00:40:06;;;;;;;41.20;28.40;;;6.20;99.90;;;;;;5466998;23;20017;-73
2024/01/03 00:42:37;;;;;;;27.27;19.80;;;6.40;99.90;;;;;;5008033;29;20556;-74
2024/01/03 00:45:08;;;;;;;10.57;9.35;;;6.50;99.90;;;;;;5008475;29;20053;-75
2024/01/03 00:47:39;;;;;;;26.35;20.98;;;6.40;99.90;;;;;;5008715;29;20499;-76
2024/01/03 00:50:10;;;;;;;20.50;14.27;;;6.60;99.90;;;;;;5008600;29;20161;-72
2024/01/03 00:52:41;;;;;;;19.90;16.08;;;6.60;99.90;;;;;;5008521;29;20034;-74
2024/01/03 00:55:14;;;;;;;13.98;11.77;;;6.30;99.90;;;;;;5008543;29;20387;-77
2024/01/03 00:57:45;;;;;;;18.80;13.63;;;6.40;99.90;;;;;;5008400;29;20102;-76
2024/01/03 01:00:16;;;;;;;12.60;11.02;;;5.20;99.90;;;;;;5006826;29;20057;-71
2024/01/03 01:02:47;;;;;;;10.88;9.77;;;6.50;99.90;;;;;;5008245;29;20044;-72
2024/01/03 01:05:18;;;;;;;8.65;7.57;;;4.60;99.90;;;;;;5008311;29;20026;-73
2024/01/03 01:07:49;;;;;;;10.32;9.43;;;6.30;99.90;;;;;;5008357;29;20379;-76
2024/01/03 01:10:20;;;;;;;12.80;10.88;;;6.30;99.90;;;;;;5002217;29;20026;-76
2024/01/03 01:12:51;;;;;;;12.65;11.45;;;5.60;99.90;;;;;;4988815;29;20102;-71
2024/01/03 01:15:22;;;;;;;11.50;10.43;;;6.30;99.90;;;;;;4988150;29;20355;-77
2024/01/03 01:17:53;;;;;;;12.05;10.90;;;6.50;99.90;;;;;;4986948;29;20047;-73
2024/01/03 01:20:24;;;;;;;12.38;10.38;;;6.30;99.90;;;;;;4988268;29;20033;-77
2024/01/03 01:22:55;;;;;;;9.40;8.50;;;5.80;99.90;;;;;;4986976;29;20034;-74
2024/01/03 01:25:26;;;;;;;12.68;8.70;;;6.00;99.90;;;;;;4988266;29;20057;-76
2024/01/03 01:27:57;;;;;;;11.05;8.80;;;5.90;99.90;;;;;;4988454;29;20038;-77
2024/01/03 01:30:28;;;;;;;10.38;9.45;;;5.30;99.90;;;;;;4989293;29;21016;-72
2024/01/03 01:32:59;;;;;;;10.57;9.68;;;5.50;99.90;;;;;;4989082;29;20030;-76
2024/01/03 01:35:30;;;;;;;9.88;8.82;;;6.10;99.90;;;;;;4988801;29;20514;-72
2024/01/03 01:38:03;;;;;;;8.75;7.95;;;6.20;99.90;;;;;;4989336;29;20033;-72
2024/01/03 01:40:34;;;;;;;9.45;8.65;;;6.20;99.90;;;;;;4988780;29;20496;-72
2024/01/03 01:43:05;;;;;;;10.65;8.23;;;6.20;99.90;;;;;;4988884;29;20034;-75
2024/01/03 01:45:35;;;;;;;10.63;8.95;;;6.20;99.90;;;;;;4989092;29;20030;-77
2024/01/03 01:48:10;;;;;;;11.18;10.18;;;6.10;99.90;;;;;;4989435;29;20030;-74
2024/01/03 01:50:41;;;;;;;9.82;9.10;;;6.00;99.90;;;;;;4988864;29;20033;-76
2024/01/03 01:53:13;;;;;;;10.35;8.40;;;6.10;99.90;;;;;;4988748;29;20034;-75
2024/01/03 01:55:44;;;;;;;9.25;8.38;;;5.20;99.90;;;;;;4988468;29;20030;-72
2024/01/03 01:58:15;;;;;;;8.77;7.97;;;6.00;99.90;;;;;;4988251;29;20038;-76
2024/01/03 02:00:46;;;;;;;11.75;10.15;;;6.10;99.90;;;;;;4988341;29;20090;-75
2024/01/03 02:03:17;;;;;;;11.43;10.43;;;5.90;99.90;;;;;;4987414;29;20535;-72
2024/01/03 02:05:49;;;;;;;10.80;9.68;;;6.00;99.90;;;;;;4987381;29;20026;-72
2024/01/03 02:08:20;;;;;;;9.95;9.05;;;5.90;99.90;;;;;;4986359;29;20038;-72
2024/01/03 02:10:51;;;;;;;11.55;10.40;;;5.90;99.90;;;;;;4987437;29;20042;-72
2024/01/03 02:13:22;;;;;;;11.70;9.25;;;6.00;99.90;;;;;;4987873;29;20096;-75
2024/01/03 02:15:53;;;;;;;11.43;10.25;;;5.90;99.90;;;;;;4987310;29;20035;-72
2024/01/03 02:18:28;;;;;;;12.32;11.27;;;6.10;99.90;;;;;;4988309;29;20042;-77
2024/01/03 02:21:01;;;;;;;9.48;8.55;;;5.90;99.90;;;;;;4987391;29;20146;-77
2024/01/03 02:23:35;;;;;;;8.98;8.10;;;6.00;99.90;;;;;;4988253;29;20069;-77
2024/01/03 02:26:11;;;;;;;9.32;8.20;;;6.20;99.90;;;;;;4988303;29;20057;-77
2024/01/03 02:28:46;;;;;;;10.93;10.00;;;6.10;99.90;;;;;;4988207;29;20035;-77
2024/01/03 02:31:26;;;;;;;11.43;9.90;;;6.00;99.90;;;;;;4987904;29;20038;-77
2024/01/03 02:33:57;;;;;;;10.25;9.23;;;5.80;99.90;;;;;;4988228;29;20439;-77
2024/01/03 02:36:28;;;;;;;9.80;8.95;;;6.00;99.90;;;;;;4986998;29;20165;-75
2024/01/03 02:39:00;;;;;;;10.48;9.57;;;5.70;99.90;;;;;;4988187;29;20039;-75
2024/01/03 02:41:30;;;;;;;13.05;9.93;;;5.70;99.90;;;;;;4987996;29;20485;-76
2024/01/03 02:44:01;;;;;;;10.50;9.45;;;5.90;99.90;;;;;;4987183;29;20070;-74
2024/01/03 02:46:32;;;;;;;9.00;8.18;;;5.90;99.90;;;;;;4987999;29;20050;-75
2024/01/03 02:49:03;;;;;;;9.85;9.05;;;5.90;99.90;;;;;;4986584;29;20031;-72
2024/01/03 02:51:34;;;;;;;11.75;10.70;;;6.00;99.90;;;;;;4987808;29;20018;-74
2024/01/03 02:54:05;;;;;;;11.25;9.88;;;5.90;99.90;;;;;;4987160;29;20045;-74
2024/01/03 02:56:40;;;;;;;9.75;8.75;;;5.80;99.90;;;;;;4986754;29;20034;-74
2024/01/03 02:59:11;;;;;;;9.50;8.70;;;6.00;99.90;;;;;;4986161;29;20616;-75
2024/01/03 03:01:41;;;;;;;10.98;9.90;;;5.90;99.90;;;;;;4986739;29;20110;-75
2024/01/03 03:04:12;;;;;;;18.92;15.35;;;5.80;99.90;;;;;;4989843;29;20023;-71
2024/01/03 03:06:43;;;;;;;10.27;9.27;;;5.80;99.90;;;;;;4989643;29;20572;-73
2024/01/03 03:09:14;;;;;;;14.05;11.82;;;5.80;99.90;;;;;;4991306;29;20159;-74
2024/01/03 03:11:46;;;;;;;13.00;11.70;;;5.70;99.90;;;;;;4991373;29;20038;-72
2024/01/03 03:14:17;;;;;;;13.77;11.73;;;5.80;99.90;;;;;;4991189;29;20380;-72
2024/01/03 03:16:48;;;;;;;12.18;11.02;;;5.80;99.90;;;;;;4990926;29;20049;-74
2024/01/03 03:19:19;;;;;;;12.70;11.45;;;5.70;99.90;;;;;;4991362;29;20034;-72
2024/01/03 03:21:50;;;;;;;15.63;13.32;;;5.70;99.90;;;;;;4991108;29;20086;-74
2024/01/03 03:24:21;;;;;;;13.35;12.05;;;5.70;99.90;;;;;;4991025;29;20038;-73
2024/01/03 03:26:53;;;;;;;16.05;14.32;;;5.80;99.90;;;;;;4990872;29;20023;-71
2024/01/03 03:29:24;;;;;;;14.70;13.20;;;5.70;99.90;;;;;;4989665;29;20444;-72
2024/01/03 03:31:55;;;;;;;14.90;13.18;;;5.60;99.90;;;;;;4990878;29;20026;-74
2024/01/03 03:34:25;;;;;;;15.45;12.85;;;5.50;99.90;;;;;;4991234;29;20026;-76
2024/01/03 03:36:56;;;;;;;16.80;15.15;;;5.60;99.90;;;;;;4990966;29;20074;-74
2024/01/03 03:39:27;;;;;;;14.40;12.90;;;5.60;99.90;;;;;;4990739;29;20042;-73
2024/01/03 03:41:59;;;;;;;15.15;10.45;;;5.80;99.90;;;;;;4990463;29;20591;-73
2024/01/03 03:44:30;;;;;;;14.82;10.55;;;5.80;99.90;;;;;;4988842;29;20514;-73
2024/01/03 03:47:01;;;;;;;18.00;12.23;;;5.70;99.90;;;;;;4990096;29;20030;-71
2024/01/03 03:49:32;;;;;;;15.43;13.80;;;5.70;99.90;;;;;;4989340;29;20728;-73
2024/01/03 03:52:03;;;;;;;14.73;13.25;;;5.60;99.90;;;;;;4989412;29;20090;-75
2024/01/03 03:54:34;;;;;;;15.02;13.43;;;5.70;99.90;;;;;;4989601;29;20026;-74
2024/01/03 03:57:05;;;;;;;20.35;17.55;;;5.70;99.90;;;;;;4989352;29;20038;-74
2024/01/03 03:59:36;;;;;;;20.73;16.75;;;5.70;99.90;;;;;;4988565;29;20068;-73
2024/01/03 04:02:06;;;;;;;18.40;14.68;;;5.70;99.90;;;;;;4988895;29;20570;-74
2024/01/03 04:04:38;;;;;;;20.17;14.80;;;5.70;99.90;;;;;;4990383;29;20107;-75
2024/01/03 04:07:09;;;;;;;18.88;15.15;;;5.80;99.90;;;;;;4989352;29;20034;-72
2024/01/03 04:09:44;;;;;;;19.45;15.30;;;5.80;99.90;;;;;;4990495;29;20031;-73
2024/01/03 04:12:15;;;;;;;18.27;14.80;;;5.80;99.90;;;;;;4990266;29;20031;-73
2024/01/03 04:14:45;;;;;;;15.25;13.75;;;5.80;99.90;;;;;;4988839;29;20053;-75
2024/01/03 04:17:17;;;;;;;17.77;16.00;;;6.00;99.90;;;;;;4989799;29;20042;-75
2024/01/03 04:19:48;;;;;;;16.92;13.60;;;6.10;99.90;;;;;;4989996;29;20502;-73
2024/01/03 04:22:19;;;;;;;18.25;14.10;;;6.10;99.90;;;;;;4990157;29;20042;-75
2024/01/03 04:24:50;;;;;;;18.65;16.33;;;6.10;99.90;;;;;;4988527;29;20710;-73
2024/01/03 04:27:22;;;;;;;17.45;15.60;;;6.10;99.90;;;;;;4989688;29;20094;-72
2024/01/03 04:29:53;;;;;;;18.48;16.52;;;6.30;99.90;;;;;;4989980;29;20041;-74
2024/01/03 04:32:24;;;;;;;19.30;17.40;;;6.20;99.90;;;;;;4989970;29;20464;-71
2024/01/03 04:34:55;;;;;;;20.55;18.48;;;6.30;99.90;;;;;;4990024;29;20030;-75
2024/01/03 04:37:27;;;;;;;19.25;15.85;;;6.20;99.90;;;;;;4989784;29;20129;-72
2024/01/03 04:39:58;;;;;;;18.70;16.85;;;6.40;99.90;;;;;;5458890;23;20044;-74
2024/01/03 04:42:28;;;;;;;19.58;17.48;;;6.30;99.90;;;;;;5025846;29;20045;-74
2024/01/03 04:44:59;;;;;;;19.42;17.42;;;6.30;99.90;;;;;;5026126;29;20049;-72
2024/01/03 04:47:32;;;;;;;18.83;16.98;;;6.30;99.90;;;;;;5026478;29;20033;-74
2024/01/03 04:50:03;;;;;;;20.48;18.27;;;6.50;99.90;;;;;;5026739;29;20367;-74
2024/01/03 04:52:34;;;;;;;21.00;18.58;;;6.50;99.90;;;;;;5021104;29;20396;-74
2024/01/03 04:55:05;;;;;;;23.35;19.88;;;6.60;99.90;;;;;;5015391;29;20037;-76
2024/01/03 04:57:37;;;;;;;27.52;24.73;;;6.60;99.90;;;;;;5015816;29;20036;-73
2024/01/03 05:00:08;;;;;;;27.05;24.27;;;6.50;99.90;;;;;;5019353;29;20196;-72
2024/01/03 05:02:39;;;;;;;29.48;26.45;;;6.70;99.90;;;;;;5018233;29;20522;-75
2024/01/03 05:05:10;;;;;;;30.63;27.55;;;6.70;99.90;;;;;;5015489;29;20026;-75
2024/01/03 05:07:40;;;;;;;39.50;35.53;;;6.80;99.90;;;;;;5017926;29;20028;-74
2024/01/03 05:10:11;;;;;;;35.00;31.60;;;6.90;99.90;;;;;;5017897;29;20050;-73
2024/01/03 05:12:42;;;;;;;38.95;34.95;;;6.90;99.90;;;;;;5008302;29;20026;-74
2024/01/03 05:15:13;;;;;;;36.03;32.33;;;6.80;99.90;;;;;;5007535;29;20066;-74
2024/01/03 05:17:46;;;;;;;37.72;33.83;;;6.90;99.90;;;;;;5007921;29;20048;-75
2024/01/03 05:20:17;;;;;;;37.85;33.72;;;6.90;99.90;;;;;;5006783;29;20022;-74
2024/01/03 05:22:48;;;;;;;41.92;33.22;;;7.00;99.90;;;;;;5007020;29;20369;-74
2024/01/03 05:25:19;;;;;;;40.55;33.65;;;6.90;99.90;;;;;;5007570;29;20030;-78
2024/01/03 05:27:50;;;;;;;41.40;33.63;;;6.90;99.90;;;;;;5006513;29;20479;-78
2024/01/03 05:30:21;;;;;;;42.03;35.25;;;7.00;99.90;;;;;;5007754;29;20487;-79
2024/01/03 05:32:51;;;;;;;38.65;33.83;;;7.10;99.90;;;;;;5007961;29;20033;-71
2024/01/03 05:35:22;;;;;;;127.15;107.82;;;7.10;99.90;;;;;;5007243;29;20087;-79
2024/01/03 05:37:53;;;;;;;84.07;72.43;;;7.10;99.90;;;;;;5007179;29;20552;-74
2024/01/03 05:40:24;;;;;;;59.88;50.10;;;7.00;99.90;;;;;;5006145;29;20628;-73
2024/01/03 05:42:55;;;;;;;55.20;46.08;;;7.20;99.90;;;;;;5006314;29;20155;-75
2024/01/03 05:45:26;;;;;;;57.28;47.13;;;7.20;99.90;;;;;;5005332;29;20049;-74
2024/01/03 05:47:57;;;;;;;67.70;50.53;;;7.30;99.90;;;;;;5013895;29;20033;-75
2024/01/03 05:50:27;;;;;;;75.20;55.58;;;7.30;99.90;;;;;;5018155;29;20112;-76
2024/01/03 05:52:59;;;;;;;62.42;47.80;;;7.40;99.90;;;;;;5006005;29;20100;-71
2024/01/03 05:55:29;;;;;;;59.63;49.03;;;7.40;99.90;;;;;;5002712;29;20046;-78
2024/01/03 05:58:00;;;;;;;55.38;44.15;;;7.40;99.90;;;;;;4995772;29;20050;-75
2024/01/03 06:00:31;;;;;;;54.22;42.83;;;7.40;99.90;;;;;;4996120;29;20082;-73
2024/01/03 06:03:02;;;;;;;80.55;68.03;;;7.50;99.90;;;;;;4992692;29;20058;-76
2024/01/03 06:05:33;;;;;;;70.20;56.85;;;7.60;99.90;;;;;;4991750;29;20030;-72
2024/01/03 06:08:04;;;;;;;81.18;60.53;;;7.60;99.90;;;;;;4996981;29;20090;-75
2024/01/03 06:10:35;;;;;;;58.10;46.85;;;7.60;99.90;;;;;;4997466;29;20045;-75
2024/01/03 06:13:06;;;;;;;62.65;49.65;;;7.70;99.90;;;;;;4995217;29;20038;-74
2024/01/03 06:15:37;;;;;;;65.05;53.22;;;7.70;99.90;;;;;;4996551;29;20541;-76
2024/01/03 06:18:08;;;;;;;64.28;53.05;;;7.90;99.90;;;;;;5014241;29;20130;-74
2024/01/03 06:20:40;;;;;;;61.42;52.00;;;8.00;99.90;;;;;;4999956;29;20030;-78
2024/01/03 06:23:12;;;;;;;80.03;60.08;;;8.00;99.90;;;;;;4999965;29;20026;-78
2024/01/03 06:25:43;;;;;;;75.45;57.90;;;8.20;99.90;;;;;;4996341;29;20141;-76
2024/01/03 06:28:14;;;;;;;80.40;62.03;;;8.20;99.90;;;;;;4995827;29;20606;-78
2024/01/03 06:30:45;;;;;;;70.82;56.95;;;8.30;99.90;;;;;;4999804;29;20029;-79
2024/01/03 06:33:16;;;;;;;67.75;52.50;;;8.30;99.90;;;;;;4997330;29;20444;-78
2024/01/03 06:35:46;;;;;;;80.57;57.97;;;8.40;99.90;;;;;;4998433;29;20026;-77
2024/01/03 06:38:17;;;;;;;75.72;55.85;;;8.50;99.90;;;;;;5002151;29;20114;-80
2024/01/03 06:40:49;;;;;;;71.80;52.47;;;8.60;99.90;;;;;;4999827;29;20053;-79
2024/01/03 06:43:20;;;;;;;82.53;55.75;;;8.60;99.90;;;;;;5000548;29;20045;-75
2024/01/03 06:45:51;;;;;;;93.35;57.60;;;8.70;99.90;;;;;;5002931;29;20038;-77
2024/01/03 06:48:22;;;;;;;77.72;54.50;;;8.80;99.90;;;;;;5000774;29;20429;-74
2024/01/03 06:50:53;;;;;;;78.28;53.22;;;8.90;99.90;;;;;;4999725;29;20037;-78
2024/01/03 06:53:23;;;;;;;79.53;51.08;;;8.90;99.90;;;;;;4997620;29;20130;-78
2024/01/03 06:55:55;;;;;;;77.40;48.20;;;9.20;99.90;;;;;;4999827;29;20030;-74
2024/01/03 06:58:26;;;;;;;68.45;45.92;;;9.20;99.90;;;;;;4999879;29;20091;-73
2024/01/03 07:00:57;;;;;;;79.57;53.45;;;9.30;99.90;;;;;;4999570;29;20475;-74
2024/01/03 07:03:28;;;;;;;87.20;60.03;;;9.30;99.90;;;;;;5014523;29;20496;-73
2024/01/03 07:05:59;;;;;;;85.70;57.75;;;9.50;99.90;;;;;;4999821;29;20026;-78
2024/01/03 07:08:30;;;;;;;81.82;57.58;;;9.40;99.90;;;;;;5000744;29;20030;-77
2024/01/03 07:11:01;;;;;;;85.43;58.17;;;9.50;99.90;;;;;;4999143;29;20114;-76
2024/01/03 07:13:32;;;;;;;88.90;59.38;;;9.60;99.90;;;;;;4999059;29;20044;-74
2024/01/03 07:16:03;;;;;;;88.32;62.33;;;9.70;99.90;;;;;;4997820;29;20030;-77
2024/01/03 07:18:34;;;;;;;83.65;58.80;;;9.70;99.90;;;;;;5005512;29;20045;-76
2024/01/03 07:21:05;;;;;;;79.20;55.35;;;9.80;99.90;;;;;;5009503;29;20555;-74
2024/01/03 07:23:36;;;;;;;75.10;52.63;;;10.00;99.90;;;;;;5008624;29;20032;-77
2024/01/03 07:26:07;;;;;;;79.70;58.70;;;9.90;99.90;;;;;;5008883;29;20033;-78
2024/01/03 07:28:37;;;;;;;83.63;59.20;;;9.90;99.90;;;;;;5008949;29;20045;-78
2024/01/03 07:31:08;;;;;;;79.13;53.95;;;10.00;99.90;;;;;;5007550;29;20479;-75
2024/01/03 07:33:40;;;;;;;76.55;52.53;;;10.00;99.90;;;;;;5008856;29;20575;-74
2024/01/03 07:36:11;;;;;;;72.32;51.50;;;10.00;99.90;;;;;;5008951;29;20112;-76
2024/01/03 07:38:44;;;;;;;79.00;53.35;;;10.20;99.90;;;;;;5008801;29;20109;-76
2024/01/03 07:41:21;;;;;;;76.63;50.95;;;10.30;99.90;;;;;;5009505;29;20049;-74
2024/01/03 07:43:52;;;;;;;81.65;54.35;;;10.30;99.90;;;;;;5008698;29;20497;-75
2024/01/03 07:46:23;;;;;;;74.40;52.95;;;10.50;99.90;;;;;;5008573;29;20037;-77
2024/01/03 07:48:54;;;;;;;74.43;53.15;;;10.50;99.90;;;;;;5001766;29;20062;-75
2024/01/03 07:51:25;;;;;;;91.55;61.33;;;10.60;99.90;;;;;;4991027;29;20062;-80
2024/01/03 07:53:56;;;;;;;115.40;84.82;;;10.50;99.90;;;;;;4990405;29;20110;-77
2024/01/03 07:56:27;;;;;;;77.55;56.63;;;10.60;99.90;;;;;;4990389;29;20042;-75
2024/01/03 07:58:57;;;;;;;85.20;62.13;;;10.90;99.90;;;;;;4990380;29;20034;-78
2024/01/03 08:01:28;;;;;;;91.03;64.07;;;10.90;99.90;;;;;;4996279;29;20106;-74
2024/01/03 08:04:00;;;;;;;105.97;81.85;;;11.10;99.90;;;;;;5009384;29;20038;-77
2024/01/03 08:06:31;;;;;;;73.43;56.13;;;11.30;99.90;;;;;;5019500;29;20078;-74
2024/01/03 08:09:02;;;;;;;65.40;48.85;;;11.30;99.90;;;;;;5028293;29;20033;-74
2024/01/03 08:11:33;;;;;;;67.07;51.40;;;11.50;99.90;;;;;;5028426;29;20395;-74
2024/01/03 08:14:04;;;;;;;80.82;64.32;;;11.60;99.90;;;;;;5026903;29;20037;-75
2024/01/03 08:16:35;;;;;;;88.93;72.53;;;11.80;99.90;;;;;;5028037;29;20034;-79
2024/01/03 08:19:06;;;;;;;64.30;47.92;;;11.70;99.90;;;;;;5006437;29;20068;-79
2024/01/03 08:21:36;;;;;;;75.85;64.07;;;12.00;99.90;;;;;;5007331;29;20415;-80
2024/01/03 08:24:07;;;;;;;59.22;45.28;;;11.80;99.90;;;;;;5009557;29;20033;-80
2024/01/03 08:26:38;;;;;;;55.67;43.80;;;11.90;99.90;;;;;;5021427;29;20084;-80
2024/01/03 08:29:11;;;;;;;56.05;43.88;;;12.20;99.90;;;;;;5011822;29;20090;-79
2024/01/03 08:31:42;;;;;;;49.40;42.58;;;12.30;99.90;;;;;;5013244;29;20018;-81
2024/01/03 08:34:13;;;;;;;53.42;43.05;;;12.20;99.90;;;;;;5016271;29;20117;-82
2024/01/03 08:36:45;;;;;;;52.17;41.65;;;12.40;99.90;;;;;;5013115;29;20394;-81
2024/01/03 08:39:16;;;;;;;46.35;38.78;;;12.30;99.90;;;;;;5012082;29;20026;-82
2024/01/03 08:41:53;;;;;;;48.40;40.10;;;12.20;99.90;;;;;;5017708;29;20780;-81
2024/01/03 08:44:25;;;;;;;46.92;35.40;;;12.40;99.90;;;;;;5016036;29;20060;-81
2024/01/03 08:46:55;;;;;;;44.63;35.95;;;12.40;99.90;;;;;;5013056;29;20025;-81
2024/01/03 08:49:26;;;;;;;48.28;35.97;;;12.60;99.90;;;;;;5017208;29;20048;-74
2024/01/03 08:51:57;;;;;;;36.75;31.67;;;12.60;99.90;;;;;;5010142;29;20099;-81
2024/01/03 08:54:28;;;;;;;42.72;31.75;;;12.40;99.90;;;;;;5028008;29;20025;-75
2024/01/03 08:56:59;;;;;;;39.63;33.50;;;12.40;99.90;;;;;;5027475;29;20052;-79
2024/01/03 08:59:30;;;;;;;33.42;28.73;;;12.60;99.90;;;;;;5007113;29;20034;-75
2024/01/03 09:02:01;;;;;;;35.95;30.85;;;12.70;99.90;;;;;;5007820;29;20029;-75
2024/01/03 09:04:32;;;;;;;36.53;32.47;;;12.50;99.90;;;;;;5008780;29;20353;-74
2024/01/03 09:07:03;;;;;;;36.15;30.13;;;12.60;99.90;;;;;;5007187;29;20030;-77
2024/01/03 09:09:34;;;;;;;34.03;29.42;;;12.70;99.90;;;;;;5009108;29;20052;-74
2024/01/03 09:12:05;;;;;;;33.78;27.73;;;12.80;99.90;;;;;;5026697;29;20379;-74
2024/01/03 09:14:36;;;;;;;31.95;27.55;;;12.70;99.90;;;;;;5020545;29;20030;-73
2024/01/03 09:17:07;;;;;;;32.80;27.45;;;12.80;99.90;;;;;;4992583;29;20077;-75
2024/01/03 09:19:38;;;;;;;31.27;27.73;;;12.90;99.90;;;;;;5006588;29;20025;-71
2024/01/03 09:22:08;;;;;;;29.90;26.75;;;12.80;99.90;;;;;;5007085;29;20500;-73
2024/01/03 09:24:40;;;;;;;30.73;25.60;;;13.00;99.90;;;;;;5006765;29;20105;-72
2024/01/03 09:27:11;;;;;;;28.77;25.77;;;12.80;99.90;;;;;;5007803;29;20042;-73
2024/01/03 09:29:42;;;;;;;30.75;25.55;;;12.90;99.90;;;;;;5004695;29;20037;-74
2024/01/03 09:32:16;;;;;;;31.15;26.88;;;13.00;99.90;;;;;;5007003;29;20076;-72
2024/01/03 09:34:47;;;;;;;33.70;26.38;;;13.00;99.90;;;;;;5007335;29;20042;-72
2024/01/03 09:37:18;;;;;;;30.30;27.13;;;13.00;99.90;;;;;;5007214;29;20070;-75
2024/01/03 09:39:48;;;;;;;29.25;26.27;;;13.10;99.90;;;;;;5006783;29;20046;-73
2024/01/03 09:42:19;;;;;;;29.98;26.42;;;13.10;99.90;;;;;;5006284;29;20046;-75
2024/01/03 09:44:51;;;;;;;31.33;26.75;;;13.10;99.90;;;;;;5006851;29;20037;-72
2024/01/03 09:47:22;;;;;;;29.55;26.58;;;13.10;99.90;;;;;;5007536;29;20041;-75
2024/01/03 09:49:53;;;;;;;30.55;27.52;;;13.20;99.90;;;;;;5007407;29;20764;-73
2024/01/03 09:52:24;;;;;;;30.10;26.90;;;13.20;99.90;;;;;;5007445;29;20033;-74
2024/01/03 09:54:55;;;;;;;29.90;26.80;;;13.20;99.90;;;;;;5005742;29;20459;-71
2024/01/03 09:57:27;;;;;;;30.52;27.38;;;13.30;99.90;;;;;;5007117;29;20042;-74
2024/01/03 09:59:58;;;;;;;28.63;25.80;;;13.30;99.90;;;;;;5006185;29;20038;-73
2024/01/03 10:02:29;;;;;;;28.95;26.05;;;13.30;99.90;;;;;;5007273;29;20037;-71
2024/01/03 10:05:00;;;;;;;31.30;26.55;;;13.30;99.90;;;;;;5007220;29;20459;-74
2024/01/03 10:07:35;;;;;;;28.15;24.85;;;13.30;99.90;;;;;;5007451;29;20033;-74
2024/01/03 10:10:07;;;;;;;26.52;23.85;;;13.30;99.90;;;;;;5005003;29;20487;-75
2024/01/03 10:12:38;;;;;;;26.48;23.75;;;13.50;99.90;;;;;;5005487;29;20122;-73
2024/01/03 10:15:16;;;;;;;23.48;20.98;;;13.60;99.90;;;;;;4987321;29;20039;-74
2024/01/03 10:17:47;;;;;;;22.33;20.08;;;13.70;99.90;;;;;;4987415;29;20582;-71
2024/01/03 10:20:28;;;;;;;23.50;20.88;;;13.80;99.90;;;;;;4987225;29;20030;-75
2024/01/03 10:23:06;;;;;;;21.58;19.27;;;13.80;99.90;;;;;;4990731;29;20021;-73
2024/01/03 10:25:38;;;;;;;25.73;23.15;;;13.70;99.90;;;;;;5005690;29;20063;-73
2024/01/03 10:28:17;;;;;;;23.50;21.30;;;13.90;99.90;;;;;;5006457;29;20135;-75
2024/01/03 10:30:55;;;;;;;25.08;22.67;;;13.90;99.90;;;;;;5005467;29;20030;-75
2024/01/03 10:33:26;;;;;;;26.42;23.30;;;13.80;99.90;;;;;;5006805;29;20387;-75
2024/01/03 10:35:57;;;;;;;26.55;24.00;;;13.90;99.90;;;;;;5006435;29;20030;-75
2024/01/03 10:38:29;;;;;;;25.65;23.00;;;13.80;99.90;;;;;;5006388;29;20046;-73
2024/01/03 10:41:00;;;;;;;24.42;22.10;;;13.90;99.90;;;;;;5006346;29;20077;-71
2024/01/03 10:43:32;;;;;;;22.92;20.42;;;13.80;99.90;;;;;;5004990;29;20104;-73
2024/01/03 10:46:04;;;;;;;31.67;27.70;;;13.90;99.90;;;;;;5006619;29;20030;-73
2024/01/03 10:48:36;;;;;;;21.60;19.35;;;14.00;99.90;;;;;;5006577;29;20038;-76
2024/01/03 10:51:12;;;;;;;22.33;18.25;;;14.00;99.90;;;;;;5006574;29;20608;-71
2024/01/03 10:53:45;;;;;;;19.83;17.08;;;14.00;99.90;;;;;;5006884;29;20038;-73
2024/01/03 10:56:16;;;;;;;18.98;16.85;;;13.90;99.90;;;;;;5006776;29;20445;-71
2024/01/03 10:58:49;;;;;;;16.83;15.20;;;14.00;99.90;;;;;;5006864;29;20077;-71
2024/01/03 11:01:29;;;;;;;19.55;17.05;;;13.90;99.90;;;;;;5006390;29;20108;-72
2024/01/03 11:04:00;;;;;;;;;;;14.00;99.90;;;;;;5003090;29;20037;-72
2024/01/03 11:06:41;;;;;;;18.67;16.40;;;14.00;99.90;;;;;;5006226;29;19915;-72
2024/01/03 11:09:12;;;;;;;18.63;16.02;;;14.00;99.90;;;;;;5452464;23;20140;-74
2024/01/03 11:11:43;;;;;;;27.00;22.23;;;14.10;99.90;;;;;;5024367;29;20037;-73
2024/01/03 11:14:17;;;;;;;19.00;16.52;;;14.00;99.90;;;;;;5024527;29;20029;-72
2024/01/03 11:16:48;;;;;;;20.10;16.77;;;14.10;99.90;;;;;;5024295;29;20034;-74
2024/01/03 11:19:29;;;;;;;19.08;16.27;;;14.00;99.90;;;;;;5024845;29;20033;-72
2024/01/03 11:22:03;;;;;;;18.83;16.85;;;14.10;99.90;;;;;;5024521;29;20026;-74
2024/01/03 11:24:33;;;;;;;22.27;16.80;;;14.10;99.90;;;;;;5027564;29;20029;-71
2024/01/03 11:27:04;;;;;;;18.92;15.82;;;14.00;99.90;;;;;;5029264;29;20028;-75
2024/01/03 11:29:35;;;;;;;22.55;17.52;;;14.00;99.90;;;;;;5029383;29;20470;-70
2024/01/03 11:32:07;;;;;;;19.70;15.15;;;14.20;99.90;;;;;;5029128;29;20028;-74
2024/01/03 11:34:45;;;;;;;18.92;15.35;;;14.20;99.90;;;;;;5027635;29;20040;-74
2024/01/03 11:37:19;;;;;;;20.30;16.10;;;14.20;99.90;;;;;;5027464;29;20042;-75
2024/01/03 11:39:52;;;;;;;19.63;15.40;;;14.40;99.90;;;;;;5028563;29;20121;-72
2024/01/03 11:42:38;;;;;;;17.95;16.02;;;14.40;99.90;;;;;;5028683;29;20475;-71
2024/01/03 11:45:11;;;;;;;19.48;15.10;;;14.40;99.90;;;;;;5028748;29;20022;-72
2024/01/03 11:47:45;;;;;;;20.40;15.55;;;14.40;99.90;;;;;;5028591;29;20032;-73
2024/01/03 11:50:17;;;;;;;18.27;16.45;;;14.50;99.90;;;;;;5028172;29;20558;-71
2024/01/03 11:52:49;;;;;;;18.95;16.98;;;14.40;99.90;;;;;;5028514;29;20042;-75
2024/01/03 11:55:21;;;;;;;21.45;17.05;;;14.40;99.90;;;;;;5028554;29;20018;-73
2024/01/03 11:58:01;;;;;;;19.40;16.50;;;14.50;99.90;;;;;;5027248;29;20401;-74
2024/01/03 12:00:32;;;;;;;18.42;16.13;;;14.50;99.90;;;;;;5028174;29;20021;-73
2024/01/03 12:03:04;;;;;;;20.20;16.02;;;14.50;99.90;;;;;;5028300;29;20057;-73
2024/01/03 12:05:44;;;;;;;21.17;16.02;;;14.60;99.90;;;;;;5027262;29;20030;-71
2024/01/03 12:08:15;;;;;;;19.05;16.30;;;14.60;99.90;;;;;;5027250;29;20048;-72
2024/01/03 12:10:47;;;;;;;19.73;17.02;;;14.60;99.90;;;;;;5027436;29;20054;-74
2024/01/03 12:13:18;;;;;;;16.67;15.07;;;14.60;99.90;;;;;;5027424;29;20116;-73
2024/01/03 12:15:49;;;;;;;17.63;16.00;;;14.60;99.90;;;;;;5027237;29;20022;-70
2024/01/03 12:18:22;;;;;;;18.67;16.17;;;14.70;99.90;;;;;;5025787;29;20045;-73
2024/01/03 12:20:53;;;;;;;18.35;16.65;;;14.70;99.90;;;;;;5027946;29;20030;-73
2024/01/03 12:23:24;;;;;;;20.77;15.20;;;14.70;99.90;;;;;;5028034;29;20121;-71
2024/01/03 12:25:55;;;;;;;17.20;14.32;;;14.80;99.90;;;;;;5027838;29;20112;-74
2024/01/03 12:28:26;;;;;;;15.35;13.88;;;14.70;99.90;;;;;;5028107;29;20041;-72
2024/01/03 12:30:58;;;;;;;14.57;12.52;;;14.80;99.90;;;;;;5028447;29;20030;-74
2024/01/03 12:33:29;;;;;;;16.33;13.20;;;14.80;99.90;;;;;;5027807;29;20033;-74
2024/01/03 12:36:03;;;;;;;17.52;14.02;;;14.80;99.90;;;;;;5025873;29;20025;-71
2024/01/03 12:38:34;;;;;;;16.75;15.07;;;14.80;99.90;;;;;;5027800;29;20045;-71
2024/01/03 12:41:05;;;;;;;16.30;14.25;;;14.90;99.90;;;;;;5025936;29;20033;-75
2024/01/03 12:43:36;;;;;;;17.42;15.75;;;14.90;99.90;;;;;;5026197;29;20039;-75
2024/01/03 12:46:06;;;;;;;22.33;20.15;;;14.90;99.90;;;;;;5026849;29;20033;-75
2024/01/03 12:48:37;;;;;;;16.02;14.63;;;14.90;99.90;;;;;;5027825;29;20030;-73
2024/01/03 12:51:08;;;;;;;19.00;16.02;;;14.80;99.90;;;;;;5026724;29;20041;-75
2024/01/03 12:53:39;;;;;;;15.55;14.23;;;15.00;99.90;;;;;;5026284;29;20029;-74
2024/01/03 12:56:10;;;;;;;16.38;14.40;;;14.80;99.90;;;;;;5026150;29;20034;-75
2024/01/03 12:58:41;;;;;;;17.50;15.60;;;14.80;99.90;;;;;;5026795;29;20021;-72